createdAt,value
2022-12-24T00:01:33.994Z,90.41
2022-12-24T00:04:00.881Z,90.55
2022-12-24T00:06:27.633Z,90.43
2022-12-24T00:08:54.055Z,90.44
2022-12-24T00:11:21.009Z,90.58
2022-12-24T00:13:48.087Z,90.56
2022-12-24T00:16:14.620Z,90.46
2022-12-24T00:18:45.863Z,90.55
2022-12-24T00:21:13.077Z,90.37
2022-12-24T00:23:40.875Z,90.41
2022-12-24T00:26:07.786Z,90.61
2022-12-24T00:28:34.397Z,90.59
2022-12-24T00:31:07.600Z,90.96
2022-12-24T00:33:34.077Z,90.46
2022-12-24T00:36:00.493Z,90.48
2022-12-24T00:38:27.194Z,90.51
2022-12-24T00:41:00.101Z,91.05
2022-12-24T00:43:26.686Z,90.72
2022-12-24T00:45:53.227Z,90.70
2022-12-24T00:48:19.783Z,90.86
2022-12-24T00:50:46.382Z,90.39
2022-12-24T00:53:12.894Z,90.73
2022-12-24T00:55:39.297Z,91.00
2022-12-24T00:58:05.729Z,90.58
2022-12-24T01:00:32.246Z,90.68
2022-12-24T01:02:58.742Z,90.50
2022-12-24T01:05:25.496Z,90.73
2022-12-24T01:07:52.057Z,90.74
2022-12-24T01:10:20.323Z,90.81
2022-12-24T01:12:47.440Z,90.44
2022-12-24T01:15:15.604Z,90.92
2022-12-24T01:17:42.352Z,91.00
2022-12-24T01:20:13.034Z,91.02
2022-12-24T01:22:39.461Z,91.07
2022-12-24T01:25:06.375Z,90.88
2022-12-24T01:27:33.223Z,90.65
2022-12-24T01:29:59.722Z,90.78
2022-12-24T01:32:26.243Z,90.86
2022-12-24T01:34:52.747Z,90.88
2022-12-24T01:37:19.170Z,91.02
2022-12-24T01:39:45.575Z,91.19
2022-12-24T01:42:40.345Z,91.75
2022-12-24T01:45:41.287Z,92.54
2022-12-24T01:48:25.772Z,91.91
2022-12-24T01:50:58.724Z,91.67
2022-12-24T01:53:25.807Z,90.84
2022-12-24T01:55:53.249Z,91.05
2022-12-24T01:58:24.103Z,91.31
2022-12-24T02:00:50.546Z,91.13
2022-12-24T02:03:17.808Z,91.11
2022-12-24T02:05:53.476Z,91.99
2022-12-24T02:08:20.293Z,91.31
2022-12-24T02:10:47.843Z,91.30
2022-12-24T02:13:17.800Z,91.28
2022-12-24T02:16:07.140Z,91.40
2022-12-24T02:18:45.378Z,92.03
2022-12-24T02:21:23.759Z,91.26
2022-12-24T02:24:23.390Z,92.40
2022-12-24T02:27:14.404Z,91.52
2022-12-24T02:30:01.693Z,92.43
2022-12-24T02:32:28.073Z,90.97
2022-12-24T02:35:05.540Z,91.64
2022-12-24T02:37:37.207Z,91.29
2022-12-24T02:40:16.234Z,91.42
2022-12-24T02:42:48.350Z,91.14
2022-12-24T02:45:18.137Z,91.20
2022-12-24T02:47:45.912Z,91.04
2022-12-24T02:50:15.225Z,91.10
2022-12-24T02:52:46.792Z,91.32
2022-12-24T02:55:23.082Z,91.69
2022-12-24T02:58:15.101Z,92.55
2022-12-24T03:01:16.321Z,92.40
2022-12-24T03:04:00.564Z,91.88
2022-12-24T03:06:47.225Z,92.50
2022-12-24T03:09:24.561Z,91.69
2022-12-24T03:11:58.315Z,91.56
2022-12-24T03:14:26.303Z,91.07
2022-12-24T03:16:52.896Z,91.07
2022-12-24T03:19:21.987Z,91.23
2022-12-24T03:21:49.751Z,91.17
2022-12-24T03:24:16.223Z,90.99
2022-12-24T03:26:44.957Z,90.91
2022-12-24T03:29:11.748Z,90.83
2022-12-24T03:31:46.900Z,91.49
2022-12-24T03:34:15.049Z,91.03
2022-12-24T03:36:42.377Z,90.67
2022-12-24T03:39:09.835Z,90.88
2022-12-24T03:41:37.818Z,90.76
2022-12-24T03:44:05.512Z,90.78
2022-12-24T03:46:32.026Z,90.89
2022-12-24T03:48:58.688Z,90.89
2022-12-24T03:51:26.146Z,91.05
2022-12-24T03:53:53.729Z,90.77
2022-12-24T03:56:20.743Z,91.03
2022-12-24T03:58:47.354Z,90.81
2022-12-24T04:01:14.015Z,90.83
2022-12-24T04:03:40.597Z,90.74
2022-12-24T04:06:10.042Z,90.93
2022-12-24T04:08:37.166Z,91.27
2022-12-24T04:11:10.150Z,91.02
2022-12-24T04:13:37.027Z,90.72
2022-12-24T04:16:06.860Z,90.96
2022-12-24T04:18:33.827Z,90.71
2022-12-24T04:21:00.296Z,90.93
2022-12-24T04:23:26.714Z,90.94
2022-12-24T04:25:53.199Z,91.01
2022-12-24T04:28:19.595Z,90.76
2022-12-24T04:30:46.170Z,90.97
2022-12-24T04:33:12.689Z,90.67
2022-12-24T04:35:42.627Z,90.94
2022-12-24T04:38:09.977Z,90.96
2022-12-24T04:40:36.691Z,90.76
2022-12-24T04:43:03.132Z,90.79
2022-12-24T04:45:29.588Z,90.69
2022-12-24T04:47:56.318Z,90.79
2022-12-24T04:50:22.789Z,90.80
2022-12-24T04:52:49.264Z,90.75
2022-12-24T04:55:15.740Z,90.84
2022-12-24T04:57:42.431Z,90.69
2022-12-24T05:00:09.860Z,90.71
2022-12-24T05:02:36.534Z,90.93
2022-12-24T05:05:03.604Z,91.04
2022-12-24T05:07:30.090Z,90.83
2022-12-24T05:09:56.632Z,90.66
2022-12-24T05:12:23.410Z,90.87
2022-12-24T05:14:49.835Z,90.96
2022-12-24T05:17:16.320Z,90.93
2022-12-24T05:19:42.790Z,91.13
2022-12-24T05:22:27.511Z,91.08
2022-12-24T05:25:12.410Z,90.78
2022-12-24T05:27:38.832Z,90.87
2022-12-24T05:30:06.123Z,91.04
2022-12-24T05:32:32.695Z,91.34
2022-12-24T05:34:59.092Z,91.13
2022-12-24T05:37:25.671Z,91.34
2022-12-24T05:39:52.055Z,91.34
2022-12-24T05:42:18.433Z,91.14
2022-12-24T05:44:44.838Z,91.05
2022-12-24T05:47:11.466Z,91.43
2022-12-24T05:49:37.830Z,91.29
2022-12-24T05:52:04.563Z,90.87
2022-12-24T05:54:31.020Z,91.18
2022-12-24T05:56:57.583Z,91.07
2022-12-24T05:59:24.039Z,91.52
2022-12-24T06:01:50.512Z,91.43
2022-12-24T06:04:18.579Z,91.52
2022-12-24T06:06:48.183Z,91.31
2022-12-24T06:09:15.157Z,91.55
2022-12-24T06:11:41.608Z,91.41
2022-12-24T06:14:08.473Z,91.37
2022-12-24T06:16:34.940Z,91.31
2022-12-24T06:19:01.444Z,91.16
2022-12-24T06:21:27.851Z,91.38
2022-12-24T06:23:54.326Z,91.42
2022-12-24T06:26:22.582Z,91.48
2022-12-24T06:28:50.407Z,91.53
2022-12-24T06:31:19.085Z,91.36
2022-12-24T06:33:45.688Z,91.44
2022-12-24T06:36:17.882Z,91.45
2022-12-24T06:38:46.069Z,91.49
2022-12-24T06:41:12.807Z,91.32
2022-12-24T06:43:39.229Z,91.66
2022-12-24T06:46:05.874Z,91.27
2022-12-24T06:48:32.490Z,91.32
2022-12-24T06:51:02.281Z,91.47
2022-12-24T06:53:28.821Z,91.36
2022-12-24T06:56:08.972Z,92.18
2022-12-24T06:58:36.058Z,91.54
2022-12-24T07:01:03.670Z,91.45
2022-12-24T07:03:30.842Z,91.16
2022-12-24T07:05:58.555Z,91.41
2022-12-24T07:08:25.206Z,91.49
2022-12-24T07:10:54.461Z,91.37
2022-12-24T07:13:21.648Z,91.41
2022-12-24T07:15:57.358Z,92.31
2022-12-24T07:18:23.807Z,91.52
2022-12-24T07:20:50.289Z,91.41
2022-12-24T07:23:16.788Z,91.30
2022-12-24T07:25:43.401Z,91.33
2022-12-24T07:28:09.932Z,91.41
2022-12-24T07:30:36.419Z,91.26
2022-12-24T07:33:03.161Z,91.26
2022-12-24T07:35:30.664Z,91.31
2022-12-24T07:37:57.417Z,91.26
2022-12-24T07:40:23.828Z,91.12
2022-12-24T07:42:50.272Z,91.20
2022-12-24T07:45:16.889Z,91.32
2022-12-24T07:47:43.390Z,91.03
2022-12-24T07:50:10.455Z,91.48
2022-12-24T07:52:36.956Z,91.05
2022-12-24T07:55:03.521Z,91.36
2022-12-24T07:57:30.078Z,91.35
2022-12-24T07:59:56.502Z,91.53
2022-12-24T08:02:23.161Z,91.21
2022-12-24T08:04:49.753Z,91.40
2022-12-24T08:07:16.161Z,91.37
2022-12-24T08:09:42.702Z,91.18
2022-12-24T08:12:09.175Z,90.80
2022-12-24T08:14:35.572Z,91.17
2022-12-24T08:17:02.042Z,91.03
2022-12-24T08:19:28.478Z,91.50
2022-12-24T08:21:54.961Z,91.00
2022-12-24T08:24:21.418Z,91.45
2022-12-24T08:26:47.944Z,91.20
2022-12-24T08:29:14.436Z,91.43
2022-12-24T08:31:41.820Z,91.46
2022-12-24T08:34:11.092Z,91.46
2022-12-24T08:36:37.759Z,91.38
2022-12-24T08:39:04.371Z,91.55
2022-12-24T08:41:31.904Z,91.42
2022-12-24T08:43:59.151Z,91.26
2022-12-24T08:46:26.083Z,91.24
2022-12-24T08:48:53.129Z,91.34
2022-12-24T08:51:19.839Z,91.59
2022-12-24T08:53:46.765Z,91.40
2022-12-24T08:56:13.961Z,91.64
2022-12-24T08:58:40.510Z,91.56
2022-12-24T09:01:12.655Z,91.69
2022-12-24T09:03:39.421Z,91.44
2022-12-24T09:06:06.794Z,91.66
2022-12-24T09:08:33.745Z,91.55
2022-12-24T09:11:05.632Z,91.82
2022-12-24T09:13:32.101Z,91.80
2022-12-24T09:15:58.558Z,91.53
2022-12-24T09:18:25.606Z,91.48
2022-12-24T09:20:57.244Z,91.66
2022-12-24T09:23:24.101Z,91.11
2022-12-24T09:25:50.555Z,91.33
2022-12-24T09:28:16.969Z,91.61
2022-12-24T09:30:43.373Z,91.74
2022-12-24T09:33:09.900Z,91.80
2022-12-24T09:35:38.691Z,91.72
2022-12-24T09:38:05.185Z,91.71
2022-12-24T09:40:39.950Z,92.30
2022-12-24T09:43:14.307Z,91.96
2022-12-24T09:45:48.516Z,92.09
2022-12-24T09:48:20.148Z,91.90
2022-12-24T09:50:51.742Z,91.88
2022-12-24T09:53:24.354Z,92.28
2022-12-24T09:55:56.417Z,91.97
2022-12-24T09:58:31.914Z,92.45
2022-12-24T10:01:01.757Z,92.13
2022-12-24T10:03:28.433Z,91.91
2022-12-24T10:06:14.490Z,92.97
2022-12-24T10:09:21.620Z,93.24
2022-12-24T10:12:21.395Z,93.13
2022-12-24T10:15:07.023Z,92.70
2022-12-24T10:17:56.924Z,92.88
2022-12-24T10:20:45.466Z,92.67
2022-12-24T10:23:18.196Z,91.60
2022-12-24T10:26:07.577Z,92.97
2022-12-24T10:28:58.398Z,92.84
2022-12-24T10:31:34.999Z,92.27
2022-12-24T10:34:06.037Z,91.77
2022-12-24T10:36:33.150Z,92.00
2022-12-24T10:39:00.096Z,91.78
2022-12-24T10:41:28.148Z,91.75
2022-12-24T10:43:55.543Z,91.76
2022-12-24T10:46:28.114Z,91.66
2022-12-24T10:48:59.291Z,92.02
2022-12-24T10:51:48.230Z,92.02
2022-12-24T10:54:26.548Z,92.13
2022-12-24T10:57:02.397Z,92.52
2022-12-24T10:59:50.402Z,91.96
2022-12-24T11:02:37.260Z,93.14
2022-12-24T11:05:28.806Z,93.36
2022-12-24T11:08:21.609Z,93.49
2022-12-24T11:10:58.769Z,92.99
2022-12-24T11:13:39.015Z,93.40
2022-12-24T11:16:14.968Z,93.86
2022-12-24T11:18:51.941Z,93.17
2022-12-24T11:21:21.718Z,92.49
2022-12-24T11:23:57.640Z,92.69
2022-12-24T11:26:26.714Z,92.28
2022-12-24T11:29:08.541Z,93.37
2022-12-24T11:31:37.382Z,91.96
2022-12-24T11:34:27.619Z,93.67
2022-12-24T11:37:10.689Z,92.05
2022-12-24T11:39:44.807Z,91.44
2022-12-24T11:46:21.017Z,92.13
2022-12-24T11:48:48.866Z,91.51
2022-12-24T11:51:25.090Z,92.38
2022-12-24T11:54:15.442Z,92.39
2022-12-24T11:56:49.523Z,92.41
2022-12-24T11:59:18.996Z,92.09
2022-12-24T12:01:49.803Z,92.46
2022-12-24T12:04:24.507Z,92.39
2022-12-24T12:06:56.737Z,92.09
2022-12-24T12:09:33.299Z,92.53
2022-12-24T12:12:07.534Z,92.71
2022-12-24T12:14:39.713Z,92.35
2022-12-24T12:17:33.460Z,93.42
2022-12-24T12:20:14.369Z,93.30
2022-12-24T12:23:02.494Z,93.04
2022-12-24T12:25:38.196Z,92.63
2022-12-24T12:28:18.344Z,92.61
2022-12-24T12:30:46.938Z,92.55
2022-12-24T12:33:28.319Z,93.10
2022-12-24T12:35:56.045Z,92.22
2022-12-24T12:38:29.150Z,92.68
2022-12-24T12:40:55.574Z,92.03
2022-12-24T12:43:43.571Z,92.48
2022-12-24T12:46:28.702Z,93.23
2022-12-24T12:49:16.431Z,92.66
2022-12-24T12:51:42.741Z,92.26
2022-12-24T12:54:20.633Z,92.28
2022-12-24T12:56:52.134Z,92.64
2022-12-24T12:59:39.351Z,93.79
2022-12-24T13:02:37.188Z,94.37
2022-12-24T13:05:34.717Z,95.03
2022-12-24T13:08:35.586Z,95.93
2022-12-24T13:11:35.870Z,96.40
2022-12-24T13:14:05.115Z,96.06
2022-12-24T13:16:46.645Z,95.34
2022-12-24T13:19:43.903Z,94.84
2022-12-24T13:22:18.563Z,93.64
2022-12-24T13:24:52.120Z,93.29
2022-12-24T13:27:21.038Z,92.65
2022-12-24T13:30:09.947Z,93.65
2022-12-24T13:32:46.648Z,92.20
2022-12-24T13:35:18.983Z,92.78
2022-12-24T13:37:45.858Z,92.29
2022-12-24T13:40:12.259Z,92.47
2022-12-24T13:43:04.766Z,93.06
2022-12-24T13:45:31.580Z,93.15
2022-12-24T13:48:07.264Z,94.20
2022-12-24T13:50:51.867Z,94.88
2022-12-24T13:53:33.103Z,94.81
2022-12-24T13:56:07.799Z,94.26
2022-12-24T13:58:38.881Z,94.00
2022-12-24T14:01:11.212Z,94.42
2022-12-24T14:03:48.930Z,94.83
2022-12-24T14:06:28.901Z,95.44
2022-12-24T14:09:05.418Z,94.58
2022-12-24T14:12:03.900Z,95.58
2022-12-24T14:14:37.046Z,94.71
2022-12-24T14:17:19.367Z,94.72
2022-12-24T14:19:50.850Z,94.17
2022-12-24T14:22:44.061Z,94.14
2022-12-24T14:25:20.081Z,94.44
2022-12-24T14:27:54.116Z,94.02
2022-12-24T14:30:22.480Z,93.50
2022-12-24T14:32:50.939Z,93.53
2022-12-24T14:35:21.536Z,93.44
2022-12-24T14:37:51.851Z,93.24
2022-12-24T14:40:26.418Z,93.60
2022-12-24T14:43:03.036Z,93.70
2022-12-24T14:45:39.850Z,92.81
2022-12-24T14:48:28.725Z,93.00
2022-12-24T14:51:21.977Z,92.75
2022-12-24T14:53:57.960Z,92.88
2022-12-24T14:56:25.448Z,91.97
2022-12-24T14:58:52.486Z,91.86
2022-12-24T15:01:24.001Z,92.09
2022-12-24T15:04:09.172Z,93.45
2022-12-24T15:06:41.974Z,92.54
2022-12-24T15:09:16.763Z,93.45
2022-12-24T15:11:45.601Z,93.04
2022-12-24T15:14:13.409Z,93.35
2022-12-24T15:16:40.584Z,93.58
2022-12-24T15:19:21.443Z,94.28
2022-12-24T15:21:48.105Z,94.20
2022-12-24T15:24:32.125Z,95.29
2022-12-24T15:26:59.663Z,94.53
2022-12-24T15:29:29.398Z,94.61
2022-12-24T15:32:01.123Z,94.34
2022-12-24T15:34:39.581Z,95.08
2022-12-24T15:37:17.967Z,95.16
2022-12-24T15:39:53.173Z,94.06
2022-12-24T15:42:22.401Z,94.22
2022-12-24T15:45:00.684Z,95.10
2022-12-24T15:47:39.715Z,94.79
2022-12-24T15:50:19.952Z,95.23
2022-12-24T15:52:46.598Z,95.09
2022-12-24T15:55:34.356Z,95.33
2022-12-24T15:58:02.398Z,94.75
2022-12-24T16:00:31.082Z,94.77
2022-12-24T16:03:16.784Z,95.99
2022-12-24T16:05:43.432Z,94.58
2022-12-24T16:08:09.820Z,94.84
2022-12-24T16:10:51.664Z,95.77
2022-12-24T16:13:29.294Z,95.11
2022-12-24T16:16:07.173Z,95.66
2022-12-24T16:18:52.533Z,95.92
2022-12-24T16:21:37.834Z,95.86
2022-12-24T16:24:35.883Z,95.71
2022-12-24T16:27:02.419Z,95.01
2022-12-24T16:29:28.955Z,95.08
2022-12-24T16:31:57.495Z,94.99
2022-12-24T16:34:27.188Z,95.12
2022-12-24T16:36:54.282Z,95.07
2022-12-24T16:39:25.692Z,95.40
2022-12-24T16:42:16.996Z,95.63
2022-12-24T16:44:44.310Z,95.09
2022-12-24T16:47:14.583Z,95.25
2022-12-24T16:49:41.079Z,95.99
2022-12-24T16:52:15.104Z,95.00
2022-12-24T16:54:41.491Z,95.15
2022-12-24T16:57:10.167Z,95.43
2022-12-24T16:59:37.881Z,95.48
2022-12-24T17:02:10.884Z,95.49
2022-12-24T17:04:40.676Z,95.33
2022-12-24T17:07:08.127Z,95.56
2022-12-24T17:09:34.601Z,95.30
2022-12-24T17:12:01.237Z,95.05
2022-12-24T17:14:27.625Z,95.18
2022-12-24T17:16:54.044Z,95.28
2022-12-24T17:19:23.604Z,95.06
2022-12-24T17:21:50.102Z,95.17
2022-12-24T17:24:16.496Z,95.14
2022-12-24T17:26:43.585Z,95.12
2022-12-24T17:29:10.640Z,95.06
2022-12-24T17:31:39.262Z,95.04
2022-12-24T17:34:06.634Z,95.07
2022-12-24T17:36:33.070Z,95.02
2022-12-24T17:38:59.449Z,95.05
2022-12-24T17:41:25.953Z,94.94
2022-12-24T17:43:52.495Z,95.04
2022-12-24T17:46:22.411Z,95.29
2022-12-24T17:48:52.425Z,95.33
2022-12-24T17:51:21.618Z,95.05
2022-12-24T17:53:49.066Z,94.90
2022-12-24T17:56:15.931Z,94.93
2022-12-24T17:58:44.117Z,94.99
2022-12-24T18:01:16.273Z,95.15
2022-12-24T18:03:43.424Z,94.91
2022-12-24T18:06:11.480Z,94.90
2022-12-24T18:08:40.136Z,94.91
2022-12-24T18:11:13.871Z,95.27
2022-12-24T18:13:41.647Z,94.51
2022-12-24T18:16:19.525Z,95.37
2022-12-24T18:18:47.043Z,94.53
2022-12-24T18:21:14.332Z,94.46
2022-12-24T18:23:45.944Z,94.71
2022-12-24T18:26:13.485Z,94.25
2022-12-24T18:28:40.602Z,94.46
2022-12-24T18:31:11.058Z,94.38
2022-12-24T18:33:38.104Z,94.32
2022-12-24T18:36:05.603Z,94.35
2022-12-24T18:38:33.536Z,94.33
2022-12-24T18:41:08.281Z,94.66
2022-12-24T18:43:35.038Z,94.21
2022-12-24T18:46:19.869Z,94.34
2022-12-24T18:48:47.057Z,93.91
2022-12-24T18:51:14.121Z,94.02
2022-12-24T18:53:40.629Z,93.71
2022-12-24T18:56:11.947Z,94.35
2022-12-24T18:58:38.875Z,94.03
2022-12-24T19:01:17.301Z,94.63
2022-12-24T19:03:44.445Z,93.97
2022-12-24T19:06:11.370Z,93.75
2022-12-24T19:11:25.658Z,93.45
2022-12-24T19:13:53.151Z,93.30
2022-12-24T19:16:21.032Z,93.51
2022-12-24T19:18:47.670Z,93.27
2022-12-24T19:21:15.894Z,93.34
2022-12-24T19:23:42.615Z,93.63
2022-12-24T19:26:11.058Z,93.49
2022-12-24T19:28:37.642Z,93.41
2022-12-24T19:31:14.546Z,93.70
2022-12-24T19:33:45.925Z,93.57
2022-12-24T19:36:16.088Z,93.59
2022-12-24T19:38:43.365Z,93.40
2022-12-24T19:41:12.644Z,93.51
2022-12-24T19:43:41.679Z,93.14
2022-12-24T19:46:10.137Z,93.09
2022-12-24T19:48:37.217Z,93.01
2022-12-24T19:51:06.631Z,93.23
2022-12-24T19:53:33.978Z,93.01
2022-12-24T19:56:00.432Z,92.86
2022-12-24T19:58:27.824Z,92.99
2022-12-24T20:00:55.116Z,92.99
2022-12-24T20:03:22.157Z,92.97
2022-12-24T20:05:48.647Z,92.58
2022-12-24T20:08:15.092Z,92.42
2022-12-24T20:10:44.026Z,92.52
2022-12-24T20:13:10.898Z,91.99
2022-12-24T20:15:41.558Z,92.42
2022-12-24T20:18:09.503Z,92.55
2022-12-24T20:20:36.626Z,92.26
2022-12-24T20:23:04.435Z,92.61
2022-12-24T20:25:37.113Z,92.71
2022-12-24T20:28:05.006Z,92.38
2022-12-24T20:30:31.419Z,92.22
2022-12-24T20:32:58.051Z,92.21
2022-12-24T20:35:25.671Z,91.77
2022-12-24T20:37:52.085Z,92.01
2022-12-24T20:40:18.619Z,91.88
2022-12-24T20:42:45.040Z,92.12
2022-12-24T20:45:11.508Z,92.10
2022-12-24T20:47:38.773Z,91.95
2022-12-24T20:50:06.175Z,92.33
2022-12-24T20:52:32.566Z,92.37
2022-12-24T20:54:58.954Z,92.64
2022-12-24T20:57:28.790Z,92.49
2022-12-24T20:59:57.915Z,92.52
2022-12-24T21:02:24.654Z,92.71
2022-12-24T21:04:54.185Z,93.00
2022-12-24T21:07:24.722Z,92.84
2022-12-24T21:09:51.168Z,92.96
2022-12-24T21:12:36.016Z,93.45
2022-12-24T21:15:03.218Z,93.29
2022-12-24T21:17:29.714Z,93.55
2022-12-24T21:19:57.159Z,93.57
2022-12-24T21:22:23.686Z,93.79
2022-12-24T21:24:50.147Z,93.61
2022-12-24T21:27:16.512Z,93.75
2022-12-24T21:29:42.992Z,93.67
2022-12-24T21:32:09.426Z,94.09
2022-12-24T21:34:35.959Z,94.53
2022-12-24T21:37:02.380Z,94.73
2022-12-24T21:39:28.772Z,95.03
2022-12-24T21:41:55.153Z,94.72
2022-12-24T21:44:21.567Z,94.95
2022-12-24T21:46:48.284Z,95.24
2022-12-24T21:49:33.063Z,95.40
2022-12-24T21:51:59.938Z,95.52
2022-12-24T21:54:27.137Z,95.06
2022-12-24T21:57:15.085Z,95.00
2022-12-24T21:59:41.824Z,94.42
2022-12-24T22:02:11.288Z,94.62
2022-12-24T22:04:37.913Z,94.39
2022-12-24T22:07:23.502Z,94.13
2022-12-24T22:10:08.420Z,93.72
2022-12-24T22:12:35.737Z,93.40
2022-12-24T22:15:05.781Z,93.52
2022-12-24T22:17:32.287Z,93.48
2022-12-24T22:19:58.723Z,93.86
2022-12-24T22:22:25.155Z,93.68
2022-12-24T22:24:51.692Z,94.10
2022-12-24T22:27:18.427Z,93.63
2022-12-24T22:29:44.922Z,93.74
2022-12-24T22:32:11.429Z,93.45
2022-12-24T22:34:37.888Z,93.96
2022-12-24T22:37:04.295Z,93.73
2022-12-24T22:39:30.801Z,93.90
2022-12-24T22:41:58.108Z,94.01
2022-12-24T22:44:25.071Z,93.78
2022-12-24T22:46:51.502Z,93.40
2022-12-24T22:49:17.932Z,93.70
2022-12-24T22:51:44.350Z,94.27
2022-12-24T22:54:10.965Z,94.47
2022-12-24T22:56:41.359Z,95.04
2022-12-24T22:59:12.425Z,95.08
2022-12-24T23:01:40.953Z,95.35
2022-12-24T23:04:08.137Z,95.49
2022-12-24T23:06:35.569Z,95.27
2022-12-24T23:09:03.040Z,95.33
2022-12-24T23:11:29.554Z,95.28
2022-12-24T23:14:14.577Z,95.00
2022-12-24T23:16:41.265Z,94.37
2022-12-24T23:19:07.800Z,93.79
2022-12-24T23:21:36.084Z,93.32
2022-12-24T23:24:03.020Z,92.84
2022-12-24T23:26:29.781Z,92.96
2022-12-24T23:28:57.391Z,92.92
2022-12-24T23:31:25.485Z,92.97
2022-12-24T23:33:52.174Z,92.77
2022-12-24T23:36:19.779Z,93.07
2022-12-24T23:38:46.186Z,92.91
2022-12-24T23:41:12.752Z,92.56
2022-12-24T23:43:39.401Z,92.49
2022-12-24T23:46:06.295Z,91.90
2022-12-24T23:48:32.880Z,91.83
2022-12-24T23:51:07.293Z,92.35
2022-12-24T23:53:33.726Z,91.41
2022-12-24T23:56:00.737Z,91.21
2022-12-24T23:58:28.107Z,91.04
